createdAt,value
2023-03-13T00:00:58.875Z,0.00
2023-03-13T00:01:58.938Z,0.00
2023-03-13T00:02:58.866Z,0.00
2023-03-13T00:03:59.039Z,0.00
2023-03-13T00:04:58.908Z,0.00
2023-03-13T00:05:58.874Z,0.00
2023-03-13T00:06:58.886Z,0.00
2023-03-13T00:07:58.827Z,0.00
2023-03-13T00:08:58.809Z,0.00
2023-03-13T00:09:58.791Z,0.00
2023-03-13T00:10:58.774Z,0.00
2023-03-13T00:11:58.763Z,0.00
2023-03-13T00:12:58.754Z,0.00
2023-03-13T00:13:58.749Z,0.00
2023-03-13T00:14:58.723Z,0.00
2023-03-13T00:15:58.708Z,0.00
2023-03-13T00:16:58.708Z,0.00
2023-03-13T00:17:58.709Z,0.00
2023-03-13T00:18:58.684Z,0.00
2023-03-13T00:19:58.662Z,0.00
2023-03-13T00:20:58.653Z,0.00
2023-03-13T00:21:58.654Z,0.00
2023-03-13T00:22:58.679Z,0.00
2023-03-13T00:23:58.638Z,0.00
2023-03-13T00:24:58.599Z,0.00
2023-03-13T00:25:58.598Z,0.00
2023-03-13T00:26:58.592Z,0.00
2023-03-13T00:27:58.642Z,0.00
2023-03-13T00:28:58.576Z,0.00
2023-03-13T00:29:58.551Z,0.00
2023-03-13T00:30:58.548Z,0.00
2023-03-13T00:31:58.557Z,0.00
2023-03-13T00:32:58.718Z,0.00
2023-03-13T00:33:58.518Z,0.00
2023-03-13T00:34:58.504Z,0.00
2023-03-13T00:35:58.551Z,0.00
2023-03-13T00:36:58.492Z,0.00
2023-03-13T00:37:58.465Z,0.00
2023-03-13T00:38:58.444Z,0.00
2023-03-13T00:39:59.141Z,0.00
2023-03-13T00:40:58.429Z,0.00
2023-03-13T00:41:58.410Z,0.00
2023-03-13T00:42:58.414Z,0.00
2023-03-13T00:43:58.401Z,0.00
2023-03-13T00:44:58.376Z,0.00
2023-03-13T00:45:58.427Z,0.00
2023-03-13T00:46:58.368Z,0.00
2023-03-13T00:47:58.344Z,0.00
2023-03-13T00:48:58.329Z,0.00
2023-03-13T00:49:58.317Z,0.00
2023-03-13T00:50:58.347Z,0.00
2023-03-13T00:51:58.301Z,0.00
2023-03-13T00:52:58.283Z,0.00
2023-03-13T00:53:58.354Z,0.00
2023-03-13T00:54:58.275Z,0.00
2023-03-13T00:55:58.269Z,0.00
2023-03-13T00:56:58.240Z,0.00
2023-03-13T00:57:58.227Z,0.00
2023-03-13T00:58:58.217Z,0.00
2023-03-13T00:59:58.225Z,0.00
2023-03-13T01:00:58.467Z,0.00
2023-03-13T01:01:58.230Z,0.00
2023-03-13T01:02:58.298Z,0.00
2023-03-13T01:03:58.185Z,0.00
2023-03-13T01:05:00.112Z,0.00
2023-03-13T01:05:58.164Z,0.00
2023-03-13T01:06:58.151Z,0.00
2023-03-13T01:07:58.122Z,0.00
2023-03-13T01:08:58.119Z,0.00
2023-03-13T01:09:58.106Z,0.00
2023-03-13T01:10:58.197Z,0.00
2023-03-13T01:11:58.085Z,0.00
2023-03-13T01:12:58.186Z,0.00
2023-03-13T01:13:58.061Z,0.00
2023-03-13T01:14:58.134Z,0.00
2023-03-13T01:15:58.092Z,0.00
2023-03-13T01:16:58.026Z,0.00
2023-03-13T01:17:58.030Z,0.00
2023-03-13T01:18:58.004Z,0.00
2023-03-13T01:19:58.007Z,0.00
2023-03-13T01:20:57.993Z,0.00
2023-03-13T01:21:57.977Z,0.00
2023-03-13T01:22:57.984Z,0.00
2023-03-13T01:23:57.965Z,0.00
2023-03-13T01:24:57.958Z,0.00
2023-03-13T01:25:57.943Z,0.00
2023-03-13T01:26:57.926Z,0.00
2023-03-13T01:27:57.912Z,0.00
2023-03-13T01:28:57.909Z,0.00
2023-03-13T01:29:57.883Z,0.00
2023-03-13T01:30:57.912Z,0.00
2023-03-13T01:31:57.872Z,0.00
2023-03-13T01:32:57.948Z,0.00
2023-03-13T01:33:57.845Z,0.00
2023-03-13T01:34:57.829Z,0.00
2023-03-13T01:35:57.847Z,0.00
2023-03-13T01:36:57.811Z,0.00
2023-03-13T01:37:57.818Z,0.00
2023-03-13T01:38:57.821Z,0.00
2023-03-13T01:39:57.788Z,0.00
2023-03-13T01:40:57.770Z,0.00
2023-03-13T01:41:57.745Z,0.00
2023-03-13T01:42:57.750Z,0.00
2023-03-13T01:43:57.769Z,0.00
2023-03-13T01:44:57.714Z,0.00
2023-03-13T01:45:57.844Z,0.00
2023-03-13T01:46:57.694Z,0.00
2023-03-13T01:47:57.683Z,0.00
2023-03-13T01:48:57.663Z,0.00
2023-03-13T01:49:57.657Z,0.00
2023-03-13T01:50:57.651Z,0.00
2023-03-13T01:51:57.653Z,0.00
2023-03-13T01:52:57.628Z,0.00
2023-03-13T01:53:57.631Z,0.00
2023-03-13T01:54:57.622Z,0.00
2023-03-13T01:55:57.597Z,0.00
2023-03-13T01:56:57.579Z,0.00
2023-03-13T01:57:57.612Z,0.00
2023-03-13T01:58:57.559Z,0.00
2023-03-13T01:59:57.556Z,0.00
2023-03-13T02:00:57.559Z,0.00
2023-03-13T02:01:57.622Z,0.00
2023-03-13T02:02:57.973Z,0.00
2023-03-13T02:03:57.510Z,0.00
2023-03-13T02:04:57.494Z,0.00
2023-03-13T02:05:57.499Z,0.00
2023-03-13T02:06:57.469Z,0.00
2023-03-13T02:07:57.489Z,0.00
2023-03-13T02:08:57.451Z,0.00
2023-03-13T02:09:57.446Z,0.00
2023-03-13T02:10:57.448Z,0.00
2023-03-13T02:11:57.451Z,0.00
2023-03-13T02:12:57.407Z,0.00
2023-03-13T02:13:57.394Z,0.00
2023-03-13T02:14:57.384Z,0.00
2023-03-13T02:15:57.405Z,0.00
2023-03-13T02:16:57.467Z,0.00
2023-03-13T02:17:57.371Z,0.00
2023-03-13T02:18:57.336Z,0.00
2023-03-13T02:19:57.328Z,0.00
2023-03-13T02:20:57.330Z,0.00
2023-03-13T02:21:57.544Z,0.00
2023-03-13T02:22:57.293Z,0.00
2023-03-13T02:23:57.304Z,0.00
2023-03-13T02:24:57.271Z,0.00
2023-03-13T02:25:57.269Z,0.00
2023-03-13T02:26:57.270Z,0.00
2023-03-13T02:27:57.236Z,0.00
2023-03-13T02:28:57.225Z,0.00
2023-03-13T02:29:57.220Z,0.00
2023-03-13T02:30:57.271Z,0.00
2023-03-13T02:31:57.196Z,0.00
2023-03-13T02:32:57.252Z,0.00
2023-03-13T02:33:57.174Z,0.00
2023-03-13T02:34:57.175Z,0.00
2023-03-13T02:35:57.244Z,0.00
2023-03-13T02:36:57.140Z,0.00
2023-03-13T02:37:57.132Z,0.00
2023-03-13T02:38:57.115Z,0.00
2023-03-13T02:39:57.119Z,0.00
2023-03-13T02:40:57.093Z,0.00
2023-03-13T02:41:57.084Z,0.00
2023-03-13T02:42:57.104Z,0.00
2023-03-13T02:43:57.064Z,0.00
2023-03-13T02:44:57.050Z,0.00
2023-03-13T02:45:57.040Z,0.00
2023-03-13T02:46:57.164Z,0.00
2023-03-13T02:47:57.264Z,0.00
2023-03-13T02:48:57.089Z,0.00
2023-03-13T02:49:56.992Z,0.00
2023-03-13T02:50:56.989Z,0.00
2023-03-13T02:51:56.989Z,0.00
2023-03-13T02:52:56.978Z,0.00
2023-03-13T02:53:56.980Z,0.00
2023-03-13T02:54:56.943Z,0.00
2023-03-13T02:55:56.938Z,0.00
2023-03-13T02:56:56.924Z,0.00
2023-03-13T02:57:56.943Z,0.00
2023-03-13T02:58:56.917Z,0.00
2023-03-13T02:59:57.017Z,0.00
2023-03-13T03:00:56.952Z,0.00
2023-03-13T03:01:56.879Z,0.00
2023-03-13T03:02:56.860Z,0.00
2023-03-13T03:03:56.906Z,0.00
2023-03-13T03:04:57.021Z,0.00
2023-03-13T03:05:56.828Z,0.00
2023-03-13T03:06:56.814Z,0.00
2023-03-13T03:07:56.803Z,0.00
2023-03-13T03:08:56.817Z,0.00
2023-03-13T03:09:56.792Z,0.00
2023-03-13T03:10:56.775Z,0.00
2023-03-13T03:11:56.761Z,0.00
2023-03-13T03:12:56.783Z,0.00
2023-03-13T03:13:56.741Z,0.00
2023-03-13T03:14:56.742Z,0.00
2023-03-13T03:15:56.722Z,0.00
2023-03-13T03:16:57.686Z,0.00
2023-03-13T03:17:56.698Z,0.00
2023-03-13T03:18:56.700Z,0.00
2023-03-13T03:19:56.682Z,0.00
2023-03-13T03:20:56.659Z,0.00
2023-03-13T03:21:56.670Z,0.00
2023-03-13T03:22:56.652Z,0.00
2023-03-13T03:23:56.642Z,0.00
2023-03-13T03:24:56.627Z,0.00
2023-03-13T03:25:56.603Z,0.00
2023-03-13T03:26:56.626Z,0.00
2023-03-13T03:27:56.582Z,0.00
2023-03-13T03:28:56.583Z,0.00
2023-03-13T03:29:56.567Z,0.00
2023-03-13T03:30:56.570Z,0.00
2023-03-13T03:31:56.568Z,0.00
2023-03-13T03:32:56.628Z,0.00
2023-03-13T03:33:56.519Z,0.00
2023-03-13T03:34:56.498Z,0.00
2023-03-13T03:35:56.517Z,0.00
2023-03-13T03:36:56.501Z,0.00
2023-03-13T03:37:56.481Z,0.00
2023-03-13T03:38:56.452Z,0.00
2023-03-13T03:39:56.449Z,0.00
2023-03-13T03:40:56.431Z,0.00
2023-03-13T03:41:56.438Z,0.00
2023-03-13T03:42:56.424Z,0.00
2023-03-13T03:43:56.414Z,0.00
2023-03-13T03:44:56.397Z,0.00
2023-03-13T03:45:56.460Z,0.00
2023-03-13T03:46:56.513Z,0.00
2023-03-13T03:47:56.414Z,0.00
2023-03-13T03:48:56.368Z,0.00
2023-03-13T03:49:56.339Z,0.00
2023-03-13T03:50:56.323Z,0.00
2023-03-13T03:51:56.324Z,0.00
2023-03-13T03:52:56.312Z,0.00
2023-03-13T03:53:56.288Z,0.00
2023-03-13T03:54:56.281Z,0.00
2023-03-13T03:55:56.308Z,0.00
2023-03-13T03:56:56.292Z,0.00
2023-03-13T03:57:56.248Z,0.00
2023-03-13T03:58:56.242Z,0.00
2023-03-13T03:59:56.231Z,0.00
2023-03-13T04:00:56.235Z,0.00
2023-03-13T04:01:56.517Z,0.00
2023-03-13T04:02:56.358Z,0.00
2023-03-13T04:03:56.207Z,0.00
2023-03-13T04:04:56.175Z,0.00
2023-03-13T04:05:56.166Z,0.00
2023-03-13T04:06:56.168Z,0.00
2023-03-13T04:07:56.138Z,0.00
2023-03-13T04:08:56.155Z,0.00
2023-03-13T04:09:56.135Z,0.00
2023-03-13T04:10:56.121Z,0.00
2023-03-13T04:11:56.135Z,0.00
2023-03-13T04:12:56.087Z,0.00
2023-03-13T04:13:56.306Z,0.00
2023-03-13T04:14:56.063Z,0.00
2023-03-13T04:15:56.065Z,0.00
2023-03-13T04:16:56.116Z,0.00
2023-03-13T04:17:56.030Z,0.00
2023-03-13T04:18:56.036Z,0.00
2023-03-13T04:19:56.017Z,0.00
2023-03-13T04:20:56.048Z,0.00
2023-03-13T04:21:55.982Z,0.00
2023-03-13T04:22:55.974Z,0.00
2023-03-13T04:23:55.960Z,0.00
2023-03-13T04:24:55.990Z,0.00
2023-03-13T04:25:55.962Z,0.00
2023-03-13T04:26:55.946Z,0.00
2023-03-13T04:27:56.103Z,0.00
2023-03-13T04:28:55.985Z,0.00
2023-03-13T04:29:55.921Z,0.00
2023-03-13T04:30:55.936Z,0.00
2023-03-13T04:31:55.906Z,0.00
2023-03-13T04:32:55.981Z,0.00
2023-03-13T04:33:55.861Z,0.00
2023-03-13T04:34:55.993Z,0.00
2023-03-13T04:35:55.875Z,0.00
2023-03-13T04:36:55.819Z,0.00
2023-03-13T04:37:55.827Z,0.00
2023-03-13T04:38:55.809Z,0.00
2023-03-13T04:39:55.785Z,0.00
2023-03-13T04:40:55.776Z,0.00
2023-03-13T04:41:55.770Z,0.00
2023-03-13T04:42:55.758Z,0.00
2023-03-13T04:43:55.758Z,0.00
2023-03-13T04:44:55.753Z,0.00
2023-03-13T04:45:55.789Z,0.00
2023-03-13T04:46:55.757Z,0.00
2023-03-13T04:47:55.720Z,0.00
2023-03-13T04:48:55.694Z,0.00
2023-03-13T04:49:55.678Z,0.00
2023-03-13T04:50:55.689Z,0.00
2023-03-13T04:51:55.683Z,0.00
2023-03-13T04:52:55.646Z,0.00
2023-03-13T04:53:55.634Z,0.00
2023-03-13T04:54:55.622Z,0.00
2023-03-13T04:55:55.611Z,0.00
2023-03-13T04:56:55.601Z,0.00
2023-03-13T04:57:55.612Z,0.00
2023-03-13T04:58:55.579Z,0.00
2023-03-13T04:59:55.575Z,0.00
2023-03-13T05:00:55.698Z,4.00
2023-03-13T05:01:55.548Z,4.00
2023-03-13T05:02:55.538Z,4.00
2023-03-13T05:03:55.529Z,4.00
2023-03-13T05:04:55.537Z,4.00
2023-03-13T05:05:55.507Z,4.00
2023-03-13T05:06:55.577Z,8.00
2023-03-13T05:07:55.475Z,4.00
2023-03-13T05:08:55.469Z,8.00
2023-03-13T05:09:55.455Z,8.00
2023-03-13T05:10:55.463Z,8.00
2023-03-13T05:11:58.010Z,12.00
2023-03-13T05:12:55.426Z,16.00
2023-03-13T05:13:55.412Z,20.00
2023-03-13T05:14:55.405Z,24.00
2023-03-13T05:15:55.483Z,28.00
2023-03-13T05:16:55.408Z,32.00
2023-03-13T05:17:55.375Z,40.00
2023-03-13T05:18:55.360Z,48.00
2023-03-13T05:19:56.321Z,56.00
2023-03-13T05:20:55.354Z,60.00
2023-03-13T05:21:55.328Z,68.00
2023-03-13T05:22:55.336Z,72.00
2023-03-13T05:23:55.311Z,76.00
2023-03-13T05:24:55.322Z,80.00
2023-03-13T05:25:55.300Z,80.00
2023-03-13T05:26:55.282Z,84.00
2023-03-13T05:27:55.270Z,92.00
2023-03-13T05:28:55.283Z,100.00
2023-03-13T05:29:55.234Z,112.00
2023-03-13T05:30:55.368Z,124.00
2023-03-13T05:31:55.222Z,140.00
2023-03-13T05:32:55.275Z,148.00
2023-03-13T05:33:55.212Z,152.00
2023-03-13T05:34:55.187Z,168.00
2023-03-13T05:35:55.250Z,184.00
2023-03-13T05:36:55.168Z,204.00
2023-03-13T05:37:55.161Z,236.00
2023-03-13T05:38:55.186Z,256.00
2023-03-13T05:39:55.127Z,276.00
2023-03-13T05:40:55.118Z,280.00
2023-03-13T05:41:55.105Z,296.00
2023-03-13T05:42:55.096Z,312.00
2023-03-13T05:43:55.102Z,336.00
2023-03-13T05:44:55.085Z,360.00
2023-03-13T05:45:55.061Z,384.00
2023-03-13T05:46:55.051Z,404.00
2023-03-13T05:47:55.046Z,416.00
2023-03-13T05:48:55.035Z,432.00
2023-03-13T05:49:55.032Z,444.00
2023-03-13T05:50:55.206Z,464.00
2023-03-13T05:51:54.995Z,500.00
2023-03-13T05:52:54.987Z,544.00
2023-03-13T05:53:54.974Z,592.00
2023-03-13T05:54:55.000Z,624.00
2023-03-13T05:55:54.948Z,644.00
2023-03-13T05:56:54.948Z,676.00
2023-03-13T05:57:54.940Z,708.00
2023-03-13T05:58:54.921Z,720.00
2023-03-13T05:59:54.900Z,736.00
2023-03-13T06:00:54.889Z,752.00
2023-03-13T06:01:54.894Z,768.00
2023-03-13T06:02:54.884Z,780.00
2023-03-13T06:03:54.925Z,776.00
2023-03-13T06:04:54.967Z,756.00
2023-03-13T06:05:54.847Z,756.00
2023-03-13T06:06:54.856Z,772.00
2023-03-13T06:07:54.823Z,808.00
2023-03-13T06:08:54.799Z,848.00
2023-03-13T06:09:54.790Z,908.00
2023-03-13T06:10:55.277Z,964.00
2023-03-13T06:11:54.791Z,1004.00
2023-03-13T06:12:54.766Z,1012.00
2023-03-13T06:13:54.742Z,1028.00
2023-03-13T06:14:55.722Z,1068.00
2023-03-13T06:15:54.787Z,1136.00
2023-03-13T06:16:54.959Z,1164.00
2023-03-13T06:17:54.705Z,1168.00
2023-03-13T06:18:54.692Z,1164.00
2023-03-13T06:19:54.686Z,1152.00
2023-03-13T06:20:54.666Z,1156.00
2023-03-13T06:21:54.677Z,1188.00
2023-03-13T06:22:54.645Z,1212.00
2023-03-13T06:23:54.646Z,1228.00
2023-03-13T06:24:54.621Z,1244.00
2023-03-13T06:25:54.623Z,1288.00
2023-03-13T06:26:54.651Z,1300.00
2023-03-13T06:27:54.627Z,1292.00
2023-03-13T06:28:54.581Z,1240.00
2023-03-13T06:29:54.569Z,1172.00
2023-03-13T06:30:54.555Z,1140.00
2023-03-13T06:31:54.635Z,1148.00
2023-03-13T06:32:54.687Z,1152.00
2023-03-13T06:33:55.232Z,1172.00
2023-03-13T06:34:54.526Z,1208.00
2023-03-13T06:35:56.981Z,1252.00
2023-03-13T06:36:54.497Z,1248.00
2023-03-13T06:37:54.481Z,1220.00
2023-03-13T06:38:54.490Z,1256.00
2023-03-13T06:39:54.454Z,1376.00
2023-03-13T06:40:54.509Z,1588.00
2023-03-13T06:41:54.462Z,1832.00
2023-03-13T06:42:54.453Z,2060.00
2023-03-13T06:43:54.440Z,2204.00
2023-03-13T06:44:54.402Z,2312.00
2023-03-13T06:45:54.390Z,2428.00
2023-03-13T06:46:54.454Z,2508.00
2023-03-13T06:47:54.409Z,2516.00
2023-03-13T06:48:54.366Z,2580.00
2023-03-13T06:49:54.355Z,2700.00
2023-03-13T06:50:54.343Z,2924.00
2023-03-13T06:51:54.326Z,3104.00
2023-03-13T06:52:55.240Z,3084.00
2023-03-13T06:53:54.313Z,2944.00
2023-03-13T06:54:54.295Z,2800.00
2023-03-13T06:55:54.281Z,2668.00
2023-03-13T06:56:54.280Z,2620.00
2023-03-13T06:57:54.275Z,2648.00
2023-03-13T06:58:54.264Z,2764.00
2023-03-13T06:59:54.281Z,2940.00
2023-03-13T07:00:54.259Z,3172.00
2023-03-13T07:01:54.217Z,3324.00
2023-03-13T07:02:54.218Z,3240.00
2023-03-13T07:03:54.314Z,3112.00
2023-03-13T07:04:54.272Z,3176.00
2023-03-13T07:05:54.180Z,3288.00
2023-03-13T07:06:54.162Z,3524.00
2023-03-13T07:07:54.165Z,3828.00
2023-03-13T07:08:54.139Z,4120.00
2023-03-13T07:09:54.180Z,4312.00
2023-03-13T07:10:54.121Z,4336.00
2023-03-13T07:11:54.131Z,4096.00
2023-03-13T07:12:54.121Z,3900.00
2023-03-13T07:14:00.471Z,3752.00
2023-03-13T07:14:55.099Z,3676.00
2023-03-13T07:15:54.073Z,3696.00
2023-03-13T07:16:54.263Z,3884.00
2023-03-13T07:17:54.068Z,4164.00
2023-03-13T07:18:54.040Z,4536.00
2023-03-13T07:19:54.038Z,5024.00
2023-03-13T07:20:54.033Z,5444.00
2023-03-13T07:21:53.997Z,5712.00
2023-03-13T07:22:54.005Z,5764.00
2023-03-13T07:23:53.983Z,5620.00
2023-03-13T07:24:54.018Z,5256.00
2023-03-13T07:25:53.974Z,4676.00
2023-03-13T07:27:06.001Z,4300.00
2023-03-13T07:27:54.934Z,4168.00
2023-03-13T07:28:54.754Z,3772.00
2023-03-13T07:29:53.913Z,3220.00
2023-03-13T07:30:53.973Z,3064.00
2023-03-13T07:31:53.937Z,2740.00
2023-03-13T07:32:53.967Z,2768.00
2023-03-13T07:33:53.869Z,2512.00
2023-03-13T07:34:53.861Z,2620.00
2023-03-13T07:35:53.855Z,2996.00
2023-03-13T07:36:53.864Z,3056.00
2023-03-13T07:37:53.845Z,3508.00
2023-03-13T07:38:53.810Z,4812.00
2023-03-13T07:39:53.803Z,5572.00
2023-03-13T07:40:53.811Z,5624.00
2023-03-13T07:41:53.784Z,5264.00
2023-03-13T07:42:53.970Z,4328.00
2023-03-13T07:43:53.780Z,4412.00
2023-03-13T07:44:53.753Z,5024.00
2023-03-13T07:45:53.807Z,5220.00
2023-03-13T07:46:53.765Z,4760.00
2023-03-13T07:47:53.719Z,3420.00
2023-03-13T07:48:53.703Z,3660.00
2023-03-13T07:49:53.707Z,3660.00
2023-03-13T07:50:53.680Z,3800.00
2023-03-13T07:51:53.680Z,4160.00
2023-03-13T07:52:53.720Z,4536.00
2023-03-13T07:53:53.645Z,5468.00
2023-03-13T07:54:53.637Z,5824.00
2023-03-13T07:55:53.623Z,6144.00
2023-03-13T07:56:53.715Z,6256.00
2023-03-13T07:57:53.609Z,5964.00
2023-03-13T07:58:53.609Z,5680.00
2023-03-13T07:59:53.588Z,6240.00
2023-03-13T08:00:53.573Z,6204.00
2023-03-13T08:01:53.634Z,6168.00
2023-03-13T08:02:53.633Z,5416.00
2023-03-13T08:03:53.665Z,5548.00
2023-03-13T08:04:53.597Z,4044.00
2023-03-13T08:05:53.520Z,5056.00
2023-03-13T08:06:53.521Z,5112.00
2023-03-13T08:07:53.494Z,4800.00
2023-03-13T08:08:53.598Z,4408.00
2023-03-13T08:09:53.477Z,4444.00
2023-03-13T08:10:53.465Z,4580.00
2023-03-13T08:11:53.468Z,4316.00
2023-03-13T08:12:53.433Z,3608.00
2023-03-13T08:13:53.456Z,2952.00
2023-03-13T08:14:53.417Z,2896.00
2023-03-13T08:15:53.416Z,3612.00
2023-03-13T08:16:53.481Z,3996.00
2023-03-13T08:17:53.397Z,5228.00
2023-03-13T08:18:53.382Z,3584.00
2023-03-13T08:19:53.357Z,4132.00
2023-03-13T08:20:53.364Z,4292.00
2023-03-13T08:21:53.332Z,4680.00
2023-03-13T08:22:53.352Z,4920.00
2023-03-13T08:23:53.316Z,5908.00
2023-03-13T08:24:53.321Z,4796.00
2023-03-13T08:25:53.292Z,4868.00
2023-03-13T08:26:53.280Z,3904.00
2023-03-13T08:27:53.271Z,3128.00
2023-03-13T08:28:53.253Z,3444.00
2023-03-13T08:29:53.246Z,3152.00
2023-03-13T08:30:53.298Z,3316.00
2023-03-13T08:31:53.226Z,3716.00
2023-03-13T08:32:53.253Z,3620.00
2023-03-13T08:33:53.205Z,3184.00
2023-03-13T08:34:53.249Z,4408.00
2023-03-13T08:35:53.252Z,3968.00
2023-03-13T08:36:53.166Z,3896.00
2023-03-13T08:37:53.160Z,2888.00
2023-03-13T08:38:53.163Z,3128.00
2023-03-13T08:39:53.287Z,2880.00
2023-03-13T08:40:53.158Z,3032.00
2023-03-13T08:41:53.118Z,2812.00
2023-03-13T08:42:53.103Z,2156.00
2023-03-13T08:43:53.097Z,2592.00
2023-03-13T08:44:53.188Z,3276.00
2023-03-13T08:45:53.123Z,3104.00
2023-03-13T08:46:53.071Z,2992.00
2023-03-13T08:47:53.052Z,3236.00
2023-03-13T08:48:53.047Z,3912.00
2023-03-13T08:49:53.052Z,3324.00
2023-03-13T08:50:53.042Z,3216.00
2023-03-13T08:51:53.006Z,3096.00
2023-03-13T08:52:53.006Z,2756.00
2023-03-13T08:53:52.991Z,3996.00
2023-03-13T08:54:53.004Z,4044.00
2023-03-13T08:55:52.971Z,2620.00
2023-03-13T08:56:53.030Z,2752.00
2023-03-13T08:57:52.963Z,2884.00
2023-03-13T08:58:53.057Z,3104.00
2023-03-13T08:59:52.944Z,2908.00
2023-03-13T09:00:52.907Z,2924.00
2023-03-13T09:01:52.908Z,2788.00
2023-03-13T09:02:52.953Z,2896.00
2023-03-13T09:03:53.047Z,2960.00
2023-03-13T09:04:52.864Z,3104.00
2023-03-13T09:05:56.246Z,2900.00
2023-03-13T09:06:52.869Z,2852.00
2023-03-13T09:07:52.840Z,3028.00
2023-03-13T09:08:52.971Z,3040.00
2023-03-13T09:09:52.840Z,3072.00
2023-03-13T09:10:52.856Z,2660.00
2023-03-13T09:11:52.804Z,2720.00
2023-03-13T09:12:52.780Z,2712.00
2023-03-13T09:13:52.773Z,2536.00
2023-03-13T09:14:52.761Z,2692.00
2023-03-13T09:15:52.808Z,2864.00
2023-03-13T09:16:52.738Z,3060.00
2023-03-13T09:17:52.751Z,3264.00
2023-03-13T09:18:52.904Z,3368.00
2023-03-13T09:20:00.032Z,3976.00
2023-03-13T09:20:53.704Z,3492.00
2023-03-13T09:21:52.683Z,3316.00
2023-03-13T09:22:52.750Z,2904.00
2023-03-13T09:23:52.678Z,3048.00
2023-03-13T09:24:52.649Z,3248.00
2023-03-13T09:25:52.641Z,3396.00
2023-03-13T09:27:01.049Z,3588.00
2023-03-13T09:27:53.617Z,3100.00
2023-03-13T09:28:52.863Z,2844.00
2023-03-13T09:29:52.597Z,3120.00
2023-03-13T09:30:52.596Z,3348.00
2023-03-13T09:31:52.575Z,3800.00
2023-03-13T09:32:52.609Z,3888.00
2023-03-13T09:33:52.567Z,3684.00
2023-03-13T09:34:52.546Z,3500.00
2023-03-13T09:35:52.560Z,3204.00
2023-03-13T09:36:52.524Z,2948.00
2023-03-13T09:37:52.506Z,2920.00
2023-03-13T09:38:52.628Z,2972.00
2023-03-13T09:39:52.509Z,2208.00
2023-03-13T09:41:05.423Z,2320.00
2023-03-13T09:41:53.638Z,2432.00
2023-03-13T09:42:52.452Z,2272.00
2023-03-13T09:43:52.460Z,2616.00
2023-03-13T09:44:52.431Z,2468.00
2023-03-13T09:45:52.426Z,2452.00
2023-03-13T09:46:52.563Z,2244.00
2023-03-13T09:47:52.399Z,2588.00
2023-03-13T09:48:52.440Z,3300.00
2023-03-13T09:49:52.395Z,4004.00
2023-03-13T09:50:52.365Z,4208.00
2023-03-13T09:51:52.352Z,4588.00
2023-03-13T09:52:52.349Z,4992.00
2023-03-13T09:53:52.349Z,4240.00
2023-03-13T09:54:52.349Z,3712.00
2023-03-13T09:55:52.326Z,3516.00
2023-03-13T09:56:52.311Z,3236.00
2023-03-13T09:57:52.283Z,3048.00
2023-03-13T09:58:52.384Z,3204.00
2023-03-13T09:59:52.263Z,3496.00
2023-03-13T10:00:52.426Z,3316.00
2023-03-13T10:01:52.362Z,3208.00
2023-03-13T10:02:52.232Z,3472.00
2023-03-13T10:03:52.223Z,3284.00
2023-03-13T10:04:52.299Z,3108.00
2023-03-13T10:05:52.199Z,3096.00
2023-03-13T10:07:42.322Z,3464.00
2023-03-13T10:08:42.309Z,3448.00
2023-03-13T10:09:42.301Z,3572.00
2023-03-13T10:10:42.323Z,3420.00
2023-03-13T10:11:42.294Z,3240.00
2023-03-13T10:12:42.266Z,2808.00
2023-03-13T10:13:42.255Z,2608.00
2023-03-13T10:14:42.242Z,3532.00
2023-03-13T10:15:42.302Z,4036.00
2023-03-13T10:16:42.311Z,3408.00
2023-03-13T10:17:42.219Z,2636.00
2023-03-13T10:18:42.197Z,2368.00
2023-03-13T10:19:42.202Z,2996.00
2023-03-13T10:20:42.216Z,2952.00
2023-03-13T10:21:42.158Z,2712.00
2023-03-13T10:22:43.037Z,2844.00
2023-03-13T10:23:42.144Z,4956.00
2023-03-13T10:24:42.135Z,7432.00
2023-03-13T10:25:42.131Z,8692.00
2023-03-13T10:26:42.148Z,8372.00
2023-03-13T10:27:42.201Z,8700.00
2023-03-13T10:28:42.089Z,7892.00
2023-03-13T10:29:42.086Z,7312.00
2023-03-13T10:30:42.143Z,6944.00
2023-03-13T10:31:42.116Z,7544.00
2023-03-13T10:32:43.061Z,8940.00
2023-03-13T10:33:42.053Z,10328.00
2023-03-13T10:34:42.552Z,10708.00
2023-03-13T10:35:42.076Z,11516.00
2023-03-13T10:36:41.995Z,10244.00
2023-03-13T10:37:41.986Z,9356.00
2023-03-13T10:38:41.978Z,8348.00
2023-03-13T10:39:43.620Z,7280.00
2023-03-13T10:40:41.990Z,7476.00
2023-03-13T10:41:41.994Z,8156.00
2023-03-13T10:42:41.945Z,8828.00
2023-03-13T10:43:41.925Z,9492.00
2023-03-13T10:44:41.918Z,10316.00
2023-03-13T10:45:41.920Z,11528.00
2023-03-13T10:46:41.978Z,13872.00
2023-03-13T10:47:41.874Z,13512.00
2023-03-13T10:48:41.868Z,11120.00
2023-03-13T10:49:41.867Z,11672.00
2023-03-13T10:50:41.847Z,12284.00
2023-03-13T10:51:42.538Z,11620.00
2023-03-13T10:52:41.823Z,12632.00
2023-03-13T10:53:41.820Z,13060.00
2023-03-13T10:54:41.793Z,13588.00
2023-03-13T10:55:41.798Z,17632.00
2023-03-13T10:56:44.537Z,14504.00
2023-03-13T10:57:41.763Z,16608.00
2023-03-13T10:58:41.774Z,20000.00
2023-03-13T10:59:41.745Z,22304.00
2023-03-13T11:00:41.753Z,22560.00
2023-03-13T11:01:41.721Z,21088.00
2023-03-13T11:02:41.877Z,21344.00
2023-03-13T11:03:41.766Z,24512.00
2023-03-13T11:04:41.710Z,19968.00
2023-03-13T11:05:41.678Z,19168.00
2023-03-13T11:06:41.670Z,16172.00
2023-03-13T11:07:41.654Z,15088.00
2023-03-13T11:08:41.735Z,14992.00
2023-03-13T11:09:42.551Z,15600.00
2023-03-13T11:10:41.633Z,16104.00
2023-03-13T11:11:42.550Z,15880.00
2023-03-13T11:12:41.603Z,17440.00
2023-03-13T11:13:41.588Z,17248.00
2023-03-13T11:14:41.659Z,19104.00
2023-03-13T11:15:41.570Z,22400.00
2023-03-13T11:16:41.610Z,29888.00
2023-03-13T11:17:41.553Z,33792.00
2023-03-13T11:18:41.559Z,39648.00
2023-03-13T11:19:41.539Z,56896.00
2023-03-13T11:20:41.507Z,46880.00
2023-03-13T11:21:41.502Z,48480.00
2023-03-13T11:22:41.497Z,40256.00
2023-03-13T11:23:41.477Z,45536.00
2023-03-13T11:24:41.485Z,38784.00
2023-03-13T11:25:41.468Z,35424.00
2023-03-13T11:26:41.473Z,22592.00
2023-03-13T11:27:41.512Z,24448.00
2023-03-13T11:28:41.435Z,24128.00
2023-03-13T11:29:41.443Z,25120.00
2023-03-13T11:30:41.414Z,30336.00
2023-03-13T11:31:41.457Z,39360.00
2023-03-13T11:32:41.421Z,22432.00
2023-03-13T11:33:42.074Z,19232.00
2023-03-13T11:34:41.357Z,18912.00
2023-03-13T11:35:42.081Z,19904.00
2023-03-13T11:36:41.328Z,17472.00
2023-03-13T11:37:42.521Z,18368.00
2023-03-13T11:38:41.327Z,17856.00
2023-03-13T11:39:43.018Z,18112.00
2023-03-13T11:40:41.290Z,18624.00
2023-03-13T11:41:44.100Z,20640.00
2023-03-13T11:42:41.281Z,20832.00
2023-03-13T11:43:42.455Z,21056.00
2023-03-13T11:44:41.400Z,21664.00
2023-03-13T11:45:41.308Z,21888.00
2023-03-13T11:46:42.285Z,23264.00
2023-03-13T11:47:41.216Z,23072.00
2023-03-13T11:48:42.135Z,19840.00
2023-03-13T11:49:41.198Z,19584.00
2023-03-13T11:50:41.169Z,20096.00
2023-03-13T11:51:41.273Z,18080.00
2023-03-13T11:52:41.257Z,17536.00
2023-03-13T11:53:41.161Z,17184.00
2023-03-13T11:54:41.127Z,16640.00
2023-03-13T11:55:41.118Z,16416.00
2023-03-13T11:56:41.114Z,15532.00
2023-03-13T11:57:41.117Z,14016.00
2023-03-13T11:58:41.081Z,12884.00
2023-03-13T11:59:41.073Z,11704.00
2023-03-13T12:00:41.140Z,11420.00
2023-03-13T12:01:41.050Z,11308.00
2023-03-13T12:02:41.232Z,11724.00
2023-03-13T12:03:41.128Z,11936.00
2023-03-13T12:04:41.110Z,12772.00
2023-03-13T12:05:41.037Z,13652.00
2023-03-13T12:06:40.995Z,14956.00
2023-03-13T12:07:41.004Z,15892.00
2023-03-13T12:08:40.984Z,15960.00
2023-03-13T12:09:41.106Z,15836.00
2023-03-13T12:10:40.943Z,14772.00
2023-03-13T12:11:40.942Z,15544.00
2023-03-13T12:12:40.944Z,15452.00
2023-03-13T12:13:40.937Z,17088.00
2023-03-13T12:14:40.923Z,19968.00
2023-03-13T12:15:40.908Z,19968.00
2023-03-13T12:16:41.055Z,26592.00
2023-03-13T12:17:40.927Z,27872.00
2023-03-13T12:18:40.889Z,23488.00
2023-03-13T12:19:40.879Z,21568.00
2023-03-13T12:20:40.836Z,24544.00
2023-03-13T12:21:41.619Z,20832.00
2023-03-13T12:22:40.829Z,19392.00
2023-03-13T12:23:40.835Z,17824.00
2023-03-13T12:24:40.796Z,15560.00
2023-03-13T12:25:40.864Z,14224.00
2023-03-13T12:26:40.772Z,17216.00
2023-03-13T12:27:40.764Z,24704.00
2023-03-13T12:28:40.938Z,22336.00
2023-03-13T12:29:40.741Z,30208.00
2023-03-13T12:30:40.793Z,24448.00
2023-03-13T12:31:40.736Z,15040.00
2023-03-13T12:32:40.791Z,11836.00
2023-03-13T12:33:40.706Z,15440.00